Главная страница
METAR-TAF:

METAR-TAF

Аэропорты :

Тортола, Британские Виргинские острова

широта: 18-27N, долгота: 064-32W, высота над уровнем моря: 4 м

Текущие метеонаблюдения

Эта сводка был подготовлена 20 минут назад, в 18:00 UTC
Ветер 4 Узел от южный
Температура 29°C
Влажность 66%
Давление 1018 hPa
Видимость: 16.1 км
небольшая облачность на высоте 2200 фута

METAR: TUPJ 121800Z 19004KT 10SM FEW022 29/22 A3005 RMK Q1017

Время: 14:20 (18:20 UTC)

Прогноз

Эта сводка был подготовлена 1 час и 20 минут назад, в 17:00 UTC
Прогноз действительный с 12-го 18 UTC до 13-го 18 UTC
Ветер 11 Узел от восточный
Видимость 10 км и более
Отдельные облака на высоте 2000 фута

TAF: TUPJ 121700Z 1218/1318 10011KT 9999 SCT020

Метеонаблюдения и прогнозы для более 4000 аэропортов (сводки METAR и TAF).

Имеющиеся станции представлены на карте желтыми и красными точками.

Чтобы увидеть название станции, наведите на нее мышь.

Затем щелкните, чтобы увидеть метеонаблюдения и метеопрогнозы.

Управление картой: чтобы увеличить масштаб, щелкните зеленые кнопки с черным крестиком; чтобы уменьшить масштаб, щелкните зеленую кнопку с тире; для просмотра соседних карт щелкайте зеленые стрелки.


METAR-TAF: